createdAt,value
2022-08-27T00:02:24.676Z,19.51
2022-08-27T00:07:28.847Z,19.54
2022-08-27T00:12:32.906Z,19.53
2022-08-27T00:17:38.294Z,19.51
2022-08-27T00:22:47.149Z,19.51
2022-08-27T00:27:48.983Z,19.47
2022-08-27T00:32:57.496Z,19.45
2022-08-27T00:38:01.517Z,19.45
2022-08-27T00:43:03.568Z,19.44
2022-08-27T00:48:11.961Z,19.39
2022-08-27T00:53:17.362Z,19.37
2022-08-27T00:58:36.347Z,19.32
2022-08-27T01:03:38.770Z,19.28
2022-08-27T01:08:44.212Z,19.26
2022-08-27T01:14:00.873Z,19.22
2022-08-27T01:19:10.486Z,19.16
2022-08-27T01:24:37.652Z,19.14
2022-08-27T01:29:40.182Z,19.08
2022-08-27T01:34:42.252Z,19.08
2022-08-27T01:39:48.030Z,19.07
2022-08-27T01:44:55.355Z,19.07
2022-08-27T01:49:58.484Z,19.05
2022-08-27T01:55:05.724Z,19.06
2022-08-27T02:00:21.346Z,19.07
2022-08-27T02:05:27.432Z,19.05
2022-08-27T02:10:38.581Z,19.04
2022-08-27T02:15:42.232Z,19.02
2022-08-27T02:20:46.182Z,19.01
2022-08-27T02:25:51.222Z,19.01
2022-08-27T02:30:56.614Z,19.01
2022-08-27T02:36:03.077Z,18.98
2022-08-27T02:41:09.373Z,18.96
2022-08-27T02:46:12.275Z,18.96
2022-08-27T02:51:16.318Z,18.93
2022-08-27T02:56:21.696Z,18.92
2022-08-27T03:01:26.551Z,18.89
2022-08-27T03:06:31.797Z,18.91
2022-08-27T03:11:36.055Z,18.88
2022-08-27T03:16:38.628Z,18.86
2022-08-27T03:21:41.797Z,18.86
2022-08-27T03:26:53.880Z,18.88
2022-08-27T03:31:59.399Z,18.83
2022-08-27T03:37:03.461Z,18.85
2022-08-27T03:42:10.531Z,18.81
2022-08-27T03:47:18.346Z,18.76
2022-08-27T03:52:22.567Z,18.72
2022-08-27T03:57:28.959Z,18.71
2022-08-27T04:02:33.400Z,18.69
2022-08-27T04:07:38.423Z,18.66
2022-08-27T04:12:43.011Z,18.59
2022-08-27T04:17:49.186Z,18.59
2022-08-27T04:22:55.738Z,18.59
2022-08-27T04:28:02.597Z,18.56
2022-08-27T04:33:04.653Z,18.53
2022-08-27T04:38:09.586Z,18.51
2022-08-27T04:43:17.647Z,18.49
2022-08-27T04:48:19.684Z,18.45
2022-08-27T04:53:23.849Z,18.41
2022-08-27T04:58:28.162Z,18.62
2022-08-27T05:03:33.339Z,18.49
2022-08-27T05:08:37.333Z,18.45
2022-08-27T05:13:39.346Z,18.45
2022-08-27T05:18:48.928Z,18.44
2022-08-27T05:23:51.784Z,18.39
2022-08-27T05:28:56.149Z,18.40
2022-08-27T05:34:00.655Z,18.41
2022-08-27T05:39:07.748Z,18.41
2022-08-27T05:49:37.878Z,18.43
2022-08-27T05:54:46.977Z,18.44
2022-08-27T06:00:15.754Z,18.45
2022-08-27T06:05:20.127Z,18.51
2022-08-27T06:10:31.915Z,18.56
2022-08-27T06:15:33.856Z,18.61
2022-08-27T06:20:35.749Z,18.69
2022-08-27T06:25:40.655Z,18.74
2022-08-27T06:30:47.420Z,18.80
2022-08-27T06:35:51.416Z,18.87
2022-08-27T06:40:56.635Z,18.92
2022-08-27T06:46:06.378Z,18.93
2022-08-27T06:51:20.034Z,19.16
2022-08-27T06:56:22.470Z,19.51
2022-08-27T07:01:32.734Z,19.58
2022-08-27T07:06:35.691Z,19.43
2022-08-27T07:11:47.638Z,19.27
2022-08-27T07:16:51.071Z,19.25
2022-08-27T07:21:57.084Z,19.25
2022-08-27T07:26:59.013Z,19.30
2022-08-27T07:32:06.096Z,19.37
2022-08-27T07:37:12.408Z,19.40
2022-08-27T07:42:32.772Z,19.37
2022-08-27T07:47:35.976Z,19.37
2022-08-27T07:52:37.893Z,19.45
2022-08-27T07:57:40.510Z,19.53
2022-08-27T08:02:47.556Z,19.56
2022-08-27T08:07:52.136Z,19.58
2022-08-27T08:12:56.247Z,19.67
2022-08-27T08:18:00.435Z,19.71
2022-08-27T08:23:03.122Z,19.84
2022-08-27T08:28:07.589Z,20.11
2022-08-27T08:33:09.545Z,20.09
2022-08-27T08:38:16.232Z,19.95
2022-08-27T08:43:35.751Z,20.00
2022-08-27T08:48:41.437Z,20.01
2022-08-27T08:54:04.144Z,19.97
2022-08-27T08:59:14.421Z,19.98
2022-08-27T09:04:16.411Z,20.08
2022-08-27T09:09:30.354Z,20.20
2022-08-27T09:14:46.425Z,20.28
2022-08-27T09:19:48.302Z,20.34
2022-08-27T09:25:25.935Z,20.38
2022-08-27T09:30:32.157Z,20.41
2022-08-27T09:35:42.860Z,20.53
2022-08-27T09:40:49.615Z,20.72
2022-08-27T09:45:58.271Z,20.57
2022-08-27T09:51:04.446Z,20.61
2022-08-27T09:56:11.329Z,20.77
2022-08-27T10:01:21.317Z,21.15
2022-08-27T10:06:28.137Z,21.27
2022-08-27T10:11:35.658Z,21.45
2022-08-27T10:16:52.665Z,21.59
2022-08-27T10:22:18.136Z,21.49
2022-08-27T10:27:29.792Z,21.81
2022-08-27T10:33:02.940Z,21.74
2022-08-27T10:38:17.082Z,21.88
2022-08-27T10:43:44.124Z,22.10
2022-08-27T10:48:51.884Z,21.89
2022-08-27T10:54:17.479Z,21.91
2022-08-27T10:59:37.405Z,22.27
2022-08-27T11:04:44.371Z,22.19
2022-08-27T11:09:48.115Z,22.21
2022-08-27T11:15:02.493Z,22.58
2022-08-27T11:20:21.096Z,22.65
2022-08-27T11:25:52.999Z,22.56
2022-08-27T11:31:06.979Z,22.45
2022-08-27T11:36:27.618Z,22.33
2022-08-27T11:41:50.799Z,22.50
2022-08-27T11:46:58.913Z,22.57
2022-08-27T11:52:07.429Z,22.98
2022-08-27T11:57:27.923Z,23.44
2022-08-27T12:02:35.692Z,23.39
2022-08-27T12:07:45.049Z,23.59
2022-08-27T12:13:10.045Z,23.53
2022-08-27T12:18:43.617Z,23.94
2022-08-27T12:24:02.957Z,23.82
2022-08-27T12:29:24.445Z,23.37
2022-08-27T12:34:30.103Z,23.22
2022-08-27T12:39:38.340Z,23.52
2022-08-27T12:44:40.219Z,23.31
2022-08-27T12:50:00.990Z,22.91
2022-08-27T12:55:14.435Z,23.69
2022-08-27T13:00:22.079Z,24.01
2022-08-27T13:05:43.103Z,24.06
2022-08-27T13:10:52.243Z,23.45
2022-08-27T13:15:59.494Z,24.12
2022-08-27T13:21:22.939Z,24.74
2022-08-27T13:26:29.630Z,24.80
2022-08-27T13:31:34.720Z,24.73
2022-08-27T13:37:21.152Z,24.39
2022-08-27T13:42:25.244Z,24.26
2022-08-27T13:47:42.309Z,24.97
2022-08-27T13:53:03.622Z,25.27
2022-08-27T13:58:20.406Z,25.25
2022-08-27T14:03:34.568Z,24.85
2022-08-27T14:08:36.522Z,24.47
2022-08-27T14:13:46.583Z,24.34
2022-08-27T14:19:06.607Z,23.80
2022-08-27T14:29:11.841Z,23.84
2022-08-27T14:34:16.449Z,24.58
2022-08-27T14:39:26.471Z,24.14
2022-08-27T14:44:33.790Z,25.17
2022-08-27T14:49:39.149Z,24.41
2022-08-27T14:54:44.219Z,23.81
2022-08-27T14:59:47.298Z,24.65
2022-08-27T15:04:49.352Z,24.20
2022-08-27T15:09:58.247Z,23.68
2022-08-27T15:15:00.064Z,23.22
2022-08-27T15:20:13.703Z,22.95
2022-08-27T15:25:27.487Z,22.85
2022-08-27T15:30:30.268Z,22.68
2022-08-27T15:35:34.889Z,22.40
2022-08-27T15:40:41.792Z,22.24
2022-08-27T15:45:50.346Z,23.04
2022-08-27T15:50:57.140Z,23.89
2022-08-27T15:56:03.170Z,23.43
2022-08-27T16:01:11.486Z,24.97
2022-08-27T16:06:18.844Z,24.35
2022-08-27T16:11:22.889Z,23.73
2022-08-27T16:16:32.083Z,23.24
2022-08-27T16:21:35.149Z,22.76
2022-08-27T16:26:48.985Z,22.51
2022-08-27T16:31:59.279Z,22.39
2022-08-27T16:37:05.612Z,22.21
2022-08-27T16:42:10.731Z,22.04
2022-08-27T16:47:15.387Z,21.74
2022-08-27T16:52:23.586Z,21.56
2022-08-27T16:57:29.698Z,21.48
2022-08-27T17:02:38.036Z,21.28
2022-08-27T17:07:48.209Z,21.13
2022-08-27T17:12:50.895Z,20.93
2022-08-27T17:17:57.959Z,20.86
2022-08-27T17:23:04.024Z,20.72
2022-08-27T17:28:07.852Z,20.67
2022-08-27T17:33:13.023Z,20.58
2022-08-27T17:38:19.736Z,20.51
2022-08-27T17:43:22.434Z,20.76
2022-08-27T17:48:26.917Z,20.26
2022-08-27T17:53:28.922Z,20.07
2022-08-27T17:58:35.191Z,19.91
2022-08-27T18:03:44.916Z,19.81
2022-08-27T18:09:01.053Z,19.60
2022-08-27T18:14:05.012Z,19.52
2022-08-27T18:19:08.823Z,19.90
2022-08-27T18:24:13.615Z,19.76
2022-08-27T18:29:26.409Z,19.42
2022-08-27T18:34:29.184Z,19.32
2022-08-27T18:39:39.426Z,19.20
2022-08-27T18:44:45.877Z,19.14
2022-08-27T18:49:50.204Z,19.04
2022-08-27T18:54:54.358Z,18.98
2022-08-27T18:59:59.367Z,18.96
2022-08-27T19:05:03.356Z,18.94
2022-08-27T19:10:06.629Z,18.93
2022-08-27T19:15:11.531Z,18.85
2022-08-27T19:20:13.519Z,18.79
2022-08-27T19:25:20.161Z,18.70
2022-08-27T19:30:28.806Z,18.64
2022-08-27T19:35:34.728Z,18.51
2022-08-27T19:40:42.946Z,18.54
2022-08-27T19:45:48.814Z,18.53
2022-08-27T19:50:51.000Z,18.41
2022-08-27T19:55:55.266Z,18.38
2022-08-27T20:00:59.935Z,18.36
2022-08-27T20:06:02.168Z,18.36
2022-08-27T20:11:11.663Z,18.25
2022-08-27T20:16:18.265Z,18.17
2022-08-27T20:21:22.695Z,18.17
2022-08-27T20:26:32.809Z,18.15
2022-08-27T20:31:35.234Z,18.01
2022-08-27T20:36:39.656Z,17.91
2022-08-27T20:41:41.934Z,17.85
2022-08-27T20:46:43.998Z,17.81
2022-08-27T20:52:03.042Z,17.72
2022-08-27T20:57:09.502Z,17.63
2022-08-27T21:02:13.480Z,17.58
2022-08-27T21:07:18.641Z,17.55
2022-08-27T21:12:22.742Z,17.59
2022-08-27T21:17:27.749Z,17.57
2022-08-27T21:22:34.443Z,17.51
2022-08-27T21:27:36.679Z,17.42
2022-08-27T21:32:41.697Z,17.35
2022-08-27T21:37:43.770Z,17.27
2022-08-27T21:42:45.878Z,17.24
2022-08-27T21:47:48.218Z,17.18
2022-08-27T21:52:53.605Z,17.11
2022-08-27T21:57:55.414Z,17.04
2022-08-27T22:02:59.664Z,17.07
2022-08-27T22:08:10.225Z,17.09
2022-08-27T22:13:15.339Z,17.03
2022-08-27T22:18:23.121Z,16.99
2022-08-27T22:23:28.313Z,16.92
2022-08-27T22:28:32.274Z,16.89
2022-08-27T22:33:36.280Z,16.86
2022-08-27T22:38:38.057Z,16.80
2022-08-27T22:43:40.406Z,16.75
2022-08-27T22:48:45.894Z,16.72
2022-08-27T22:53:51.068Z,16.67
2022-08-27T22:58:52.792Z,16.67
2022-08-27T23:03:57.603Z,16.63
2022-08-27T23:09:00.910Z,16.58
2022-08-27T23:14:05.606Z,16.57
2022-08-27T23:19:11.392Z,16.56
2022-08-27T23:24:21.877Z,16.55
2022-08-27T23:29:26.267Z,16.55
2022-08-27T23:34:31.993Z,16.47
2022-08-27T23:39:39.729Z,16.48
2022-08-27T23:44:42.000Z,16.58
2022-08-27T23:49:46.718Z,16.63
2022-08-27T23:54:50.795Z,16.69
2022-08-27T23:59:54.632Z,16.62
